Time;durP1;ratioP1;P1;durP2;ratioP2;P2;SDS_P1;SDS_P2;PMS_P1;PMS_P2;Temp;Humidity;BMP_temperature;BMP_pressure;BME280_temperature;BME280_humidity;BME280_pressure;Samples;Min_cycle;Max_cycle;Signal;HPM_P1;HPM_P2
2023/10/29 00:01:41;;;;;;;8.60;5.80;;;;;;;13.02;100.00;96817.44;4179350;28;20621;-85
2023/10/29 00:03:44;;;;;;;9.17;5.63;;;;;;;13.02;100.00;96811.34;4198486;28;20700;-85
2023/10/29 00:05:48;;;;;;;7.43;5.50;;;;;;;13.01;100.00;96802.69;4174622;28;21266;-85
2023/10/29 00:07:51;;;;;;;11.17;6.27;;;;;;;12.99;100.00;96802.03;4179300;28;20616;-85
2023/10/29 00:09:55;;;;;;;8.53;5.47;;;;;;;12.98;100.00;96803.00;4209460;28;21338;-85
2023/10/29 00:11:58;;;;;;;9.37;5.20;;;;;;;12.98;100.00;96802.19;4194576;28;20623;-85
2023/10/29 00:14:01;;;;;;;8.90;4.87;;;;;;;12.95;100.00;96805.91;4180710;28;20625;-84
2023/10/29 00:16:06;;;;;;;8.47;4.70;;;;;;;12.94;100.00;96795.59;4181273;28;21034;-85
2023/10/29 00:18:12;;;;;;;7.40;4.80;;;;;;;12.92;100.00;96789.69;4175582;28;20687;-85
2023/10/29 00:20:16;;;;;;;6.60;4.47;;;;;;;12.90;100.00;96789.84;4177008;28;20627;-85
2023/10/29 00:22:19;;;;;;;7.17;4.97;;;;;;;12.89;100.00;96788.19;4193748;28;20643;-85
2023/10/29 00:24:22;;;;;;;6.33;4.47;;;;;;;12.87;100.00;96795.38;4208309;28;20629;-85
2023/10/29 00:26:26;;;;;;;6.50;4.70;;;;;;;12.87;100.00;96792.75;4195566;28;20623;-85
2023/10/29 00:28:29;;;;;;;6.73;4.53;;;;;;;12.85;100.00;96799.94;4190534;28;21248;-85
2023/10/29 00:30:34;;;;;;;5.17;3.50;;;;;;;12.85;100.00;96797.34;4192555;28;20639;-85
2023/10/29 00:32:39;;;;;;;6.33;3.73;;;;;;;12.84;100.00;96803.53;4176663;28;20671;-85
2023/10/29 00:34:42;;;;;;;7.60;5.27;;;;;;;12.81;100.00;96788.09;4172315;28;20651;-85
2023/10/29 00:36:44;;;;;;;6.70;4.23;;;;;;;12.82;100.00;96789.78;4190043;28;20710;-85
2023/10/29 00:38:47;;;;;;;5.37;3.50;;;;;;;12.82;100.00;96794.13;4163705;28;20668;-85
2023/10/29 00:40:50;;;;;;;6.27;3.77;;;;;;;12.79;100.00;96789.22;4171849;28;20659;-85
2023/10/29 00:42:54;;;;;;;4.97;3.70;;;;;;;12.77;100.00;96796.41;4191276;28;20652;-84
2023/10/29 00:44:57;;;;;;;5.83;3.20;;;;;;;12.76;100.00;96794.75;4178262;28;20733;-85
2023/10/29 00:47:01;;;;;;;5.20;3.87;;;;;;;12.76;100.00;96795.59;4169189;28;21054;-85
2023/10/29 00:49:06;;;;;;;5.20;3.83;;;;;;;12.75;100.00;96793.94;4179858;28;20620;-85
2023/10/29 00:51:09;;;;;;;5.37;3.50;;;;;;;12.74;100.00;96797.50;4195229;28;20631;-85
2023/10/29 00:53:12;;;;;;;5.10;3.73;;;;;;;12.74;100.00;96794.06;4173677;28;21201;-85
2023/10/29 00:55:16;;;;;;;4.33;3.07;;;;;;;12.73;100.00;96790.66;4174801;28;20703;-85
2023/10/29 00:57:19;;;;;;;5.20;3.53;;;;;;;12.72;100.00;96799.47;4161280;28;20636;-85
2023/10/29 00:59:22;;;;;;;6.30;3.40;;;;;;;12.72;100.00;96798.66;4181077;28;20636;-85
2023/10/29 01:01:25;;;;;;;7.13;3.90;;;;;;;12.71;100.00;96797.00;4162723;28;20680;-85
2023/10/29 01:03:28;;;;;;;4.43;3.30;;;;;;;12.70;100.00;96801.41;4182080;28;21559;-85
2023/10/29 01:05:32;;;;;;;5.03;3.40;;;;;;;12.68;100.00;96792.88;4165796;28;20652;-85
2023/10/29 01:07:36;;;;;;;4.13;3.50;;;;;;;12.68;100.00;96796.47;4195813;28;20685;-86
2023/10/29 01:09:40;;;;;;;4.30;3.20;;;;;;;12.68;100.00;96793.84;4175556;28;21086;-85
2023/10/29 01:11:43;;;;;;;4.47;3.00;;;;;;;12.68;100.00;96786.00;4163198;28;20626;-85
2023/10/29 01:13:46;;;;;;;8.77;3.60;;;;;;;12.68;100.00;96795.47;4172091;28;21398;-85
2023/10/29 01:15:50;;;;;;;5.10;3.27;;;;;;;12.69;100.00;96798.94;4167623;28;21302;-85
2023/10/29 01:17:53;;;;;;;8.10;4.10;;;;;;;12.66;100.00;96801.84;4187456;28;20636;-85
2023/10/29 01:19:58;;;;;;;4.50;3.10;;;;;;;12.67;100.00;96798.25;4188851;28;21217;-85
2023/10/29 01:22:03;;;;;;;3.63;3.20;;;;;;;12.67;100.00;96792.22;4208526;28;20622;-85
2023/10/29 01:24:08;;;;;;;5.43;3.47;;;;;;;12.65;100.00;96787.13;4206414;28;21393;-85
2023/10/29 01:26:11;;;;;;;4.87;3.50;;;;;;;12.64;100.00;96782.84;4177106;28;20628;-85
2023/10/29 01:28:16;;;;;;;5.53;3.53;;;;;;;12.65;100.00;96771.44;4167115;28;20624;-85
2023/10/29 01:30:20;;;;;;;5.43;3.10;;;;;;;12.65;100.00;96754.91;4163756;28;20700;-85
2023/10/29 01:32:24;;;;;;;3.87;3.23;;;;;;;12.66;100.00;96761.78;4162300;28;21182;-85
2023/10/29 01:34:27;;;;;;;4.47;3.40;;;;;;;12.64;100.00;96779.44;4181124;28;20665;-85
2023/10/29 01:36:30;;;;;;;4.93;3.50;;;;;;;12.64;100.00;96779.44;4174958;28;21084;-85
2023/10/29 01:38:35;;;;;;;5.30;3.10;;;;;;;12.65;100.00;96776.66;4176696;28;20628;-85
2023/10/29 01:40:38;;;;;;;5.70;3.10;;;;;;;12.66;100.00;96777.47;4190870;28;20627;-85
2023/10/29 01:42:43;;;;;;;3.50;2.70;;;;;;;12.67;100.00;96766.03;4176471;28;21291;-85
2023/10/29 01:44:46;;;;;;;3.90;3.10;;;;;;;12.68;100.00;96767.69;4176460;28;20608;-85
2023/10/29 01:46:50;;;;;;;4.93;3.10;;;;;;;12.66;100.00;96761.78;4175868;28;20635;-85
2023/10/29 01:48:54;;;;;;;5.40;3.30;;;;;;;12.66;100.00;96760.00;4206015;28;20681;-85
2023/10/29 01:51:02;;;;;;;7.27;3.37;;;;;;;12.65;100.00;96757.53;4192471;28;20627;-85
2023/10/29 01:53:05;;;;;;;5.70;2.97;;;;;;;12.62;100.00;96757.84;4172848;28;20784;-85
2023/10/29 01:55:09;;;;;;;7.60;3.30;;;;;;;12.60;100.00;96757.97;4163856;28;20645;-85
2023/10/29 01:57:13;;;;;;;5.17;3.10;;;;;;;12.60;100.00;96755.38;4192290;28;20628;-85
2023/10/29 01:59:16;;;;;;;7.90;3.00;;;;;;;12.58;100.00;96751.25;4192875;28;20624;-85
2023/10/29 02:01:19;;;;;;;13.63;4.40;;;;;;;12.58;100.00;96749.44;4178511;28;20652;-85
2023/10/29 02:03:24;;;;;;;7.43;3.80;;;;;;;12.58;100.00;96740.78;4182954;28;20655;-85
2023/10/29 02:05:28;;;;;;;4.70;3.10;;;;;;;12.55;100.00;96723.59;4192856;28;20623;-85
2023/10/29 02:07:32;;;;;;;10.60;3.10;;;;;;;12.53;100.00;96714.28;4176392;28;20652;-85
2023/10/29 02:09:37;;;;;;;3.90;3.27;;;;;;;12.51;100.00;96690.88;4190520;28;21194;-85
2023/10/29 02:11:42;;;;;;;4.50;3.13;;;;;;;12.50;100.00;96696.25;4178236;28;20977;-85
2023/10/29 02:13:47;;;;;;;7.13;3.50;;;;;;;12.44;100.00;96676.75;4188812;28;20715;-85
2023/10/29 02:15:50;;;;;;;4.17;3.10;;;;;;;12.41;100.00;96684.91;4163670;28;20638;-85
2023/10/29 02:17:54;;;;;;;3.83;2.90;;;;;;;12.41;100.00;96686.69;4176035;28;20987;-85
2023/10/29 02:19:59;;;;;;;4.00;2.90;;;;;;;12.42;100.00;96690.97;4193184;28;20624;-85
2023/10/29 02:22:04;;;;;;;11.80;3.47;;;;;;;12.37;100.00;96693.19;4175160;28;20639;-85
2023/10/29 02:24:08;;;;;;;6.83;2.90;;;;;;;12.35;100.00;96679.47;4177121;28;20748;-85
2023/10/29 02:26:12;;;;;;;4.33;2.57;;;;;;;12.35;100.00;96687.31;4177807;28;20621;-85
2023/10/29 02:28:17;;;;;;;5.53;3.00;;;;;;;12.34;100.00;96688.25;4188226;28;20628;-85
2023/10/29 02:30:21;;;;;;;5.33;2.77;;;;;;;12.31;100.00;96688.56;4173344;28;20763;-85
2023/10/29 02:32:26;;;;;;;6.23;2.93;;;;;;;12.30;100.00;96689.56;4175700;28;21275;-85
2023/10/29 02:34:30;;;;;;;7.30;2.67;;;;;;;12.27;100.00;96685.44;4162686;28;21281;-85
2023/10/29 02:36:33;;;;;;;6.10;3.27;;;;;;;12.26;100.00;96686.41;4172439;28;20618;-85
2023/10/29 02:38:38;;;;;;;5.80;3.77;;;;;;;12.24;100.00;96692.75;4170958;28;20620;-85
2023/10/29 02:40:42;;;;;;;3.43;2.63;;;;;;;12.21;100.00;96685.22;4159754;28;20652;-85
2023/10/29 02:42:47;;;;;;;5.17;3.10;;;;;;;12.19;100.00;96679.28;4162678;28;20614;-85
2023/10/29 02:44:50;;;;;;;5.17;2.93;;;;;;;12.17;100.00;96681.25;4161707;28;21382;-85
2023/10/29 02:46:54;;;;;;;5.50;2.57;;;;;;;12.16;100.00;96689.22;4190901;28;20620;-85
2023/10/29 02:48:58;;;;;;;9.87;2.80;;;;;;;12.15;100.00;96690.19;4156516;28;20625;-85
2023/10/29 02:51:03;;;;;;;6.83;3.37;;;;;;;12.12;100.00;96688.72;4175777;28;20613;-85
2023/10/29 02:53:07;;;;;;;6.10;3.20;;;;;;;12.14;100.00;96686.78;4163931;28;20618;-85
2023/10/29 02:55:12;;;;;;;11.23;3.43;;;;;;;12.12;100.00;96678.25;4207349;28;20626;-85
2023/10/29 02:57:16;;;;;;;4.70;2.80;;;;;;;12.12;100.00;96677.44;4207479;28;21231;-85
2023/10/29 02:59:19;;;;;;;5.37;3.17;;;;;;;12.13;100.00;96677.28;4174196;28;20720;-85
2023/10/29 03:01:23;;;;;;;3.80;2.70;;;;;;;12.12;100.00;96672.19;4161474;28;20653;-85
2023/10/29 03:03:25;;;;;;;3.80;2.70;;;;;;;12.13;100.00;96672.03;4177579;28;20687;-85
2023/10/29 03:05:29;;;;;;;2.67;2.40;;;;;;;12.13;100.00;96676.47;4190788;28;20616;-85
2023/10/29 03:07:48;;;;;;;4.67;2.60;;;;;;;12.11;100.00;96679.22;4188787;28;20619;-85
2023/10/29 03:09:53;;;;;;;5.87;2.63;;;;;;;12.07;100.00;96667.44;4177460;28;21016;-85
2023/10/29 03:11:58;;;;;;;2.83;2.43;;;;;;;12.07;100.00;96667.44;4178061;28;21253;-85
2023/10/29 03:14:02;;;;;;;5.37;2.70;;;;;;;12.06;100.00;96662.38;4176884;28;20627;-85
2023/10/29 03:16:07;;;;;;;7.20;2.87;;;;;;;12.05;100.00;96655.50;4177025;28;20640;-85
2023/10/29 03:18:11;;;;;;;5.13;2.83;;;;;;;12.04;100.00;96654.69;4162321;28;20699;-85
2023/10/29 03:20:16;;;;;;;2.87;2.20;;;;;;;12.05;100.00;96647.66;4171069;28;21205;-85
2023/10/29 03:22:20;;;;;;;3.33;2.30;;;;;;;12.09;100.00;96639.38;4155857;28;20625;-85
2023/10/29 03:24:25;;;;;;;4.43;2.10;;;;;;;12.15;100.00;96637.91;4177136;28;21107;-85
2023/10/29 03:26:28;;;;;;;2.57;1.50;;;;;;;12.25;96.48;96642.94;4193759;28;21253;-85
2023/10/29 03:28:34;;;;;;;2.50;1.23;;;;;;;12.39;93.26;96636.38;4180960;28;21080;-85
2023/10/29 03:30:40;;;;;;;2.43;1.40;;;;;;;12.57;89.56;96652.81;4192295;28;20650;-85
2023/10/29 03:32:44;;;;;;;2.03;1.07;;;;;;;12.66;90.81;96641.44;4163450;28;21002;-85
2023/10/29 03:34:47;;;;;;;2.10;1.33;;;;;;;12.68;89.62;96641.16;4164439;28;20630;-85
2023/10/29 03:36:52;;;;;;;3.93;2.03;;;;;;;12.68;92.46;96646.38;4196921;28;20615;-85
2023/10/29 03:38:56;;;;;;;7.63;2.47;;;;;;;12.64;94.06;96659.09;4192858;28;20689;-84
2023/10/29 03:41:00;;;;;;;4.57;2.33;;;;;;;12.57;94.92;96661.50;4178702;28;20649;-85
2023/10/29 03:43:05;;;;;;;5.27;2.60;;;;;;;12.51;95.63;96653.44;4165673;28;20685;-85
2023/10/29 03:45:11;;;;;;;2.80;2.30;;;;;;;12.45;96.08;96662.72;4164247;28;21206;-85
2023/10/29 03:47:14;;;;;;;2.70;2.10;;;;;;;12.41;96.47;96650.09;4183140;28;21010;-85
2023/10/29 03:49:18;;;;;;;4.40;2.00;;;;;;;12.37;98.38;96657.44;4186217;28;21254;-85
2023/10/29 03:51:25;;;;;;;4.90;2.40;;;;;;;12.34;98.50;96662.97;4158794;28;20640;-84
2023/10/29 03:53:28;;;;;;;5.07;2.20;;;;;;;12.32;97.46;96653.63;4207094;28;20621;-85
2023/10/29 03:55:31;;;;;;;5.03;2.03;;;;;;;12.30;99.06;96655.56;4197729;28;20673;-85
2023/10/29 03:57:40;;;;;;;5.80;2.03;;;;;;;12.29;98.74;96656.53;4164172;28;20716;-85
2023/10/29 03:59:44;;;;;;;5.07;2.10;;;;;;;12.30;99.42;96660.78;4207193;28;21216;-85
2023/10/29 04:01:49;;;;;;;3.43;1.67;;;;;;;12.30;100.00;96650.34;4174806;28;20619;-85
2023/10/29 04:03:52;;;;;;;3.40;2.47;;;;;;;12.29;98.91;96648.69;4156796;28;20633;-85
2023/10/29 04:05:56;;;;;;;9.60;2.00;;;;;;;12.26;98.94;96648.97;4163831;28;20665;-85
2023/10/29 04:08:00;;;;;;;5.03;2.23;;;;;;;12.23;99.77;96655.31;4196009;28;21205;-85
2023/10/29 04:10:04;;;;;;;2.57;1.90;;;;;;;12.21;99.66;96651.25;4163415;28;20629;-85
2023/10/29 04:12:07;;;;;;;3.50;2.20;;;;;;;12.20;99.78;96654.81;4163143;28;21289;-85
2023/10/29 04:14:11;;;;;;;3.20;2.27;;;;;;;12.16;100.00;96648.22;4178081;28;20626;-85
2023/10/29 04:16:15;;;;;;;3.10;1.90;;;;;;;12.14;99.34;96650.19;4162634;28;20731;-85
2023/10/29 04:18:21;;;;;;;4.40;2.10;;;;;;;12.13;99.56;96640.69;4175071;28;20710;-85
2023/10/29 04:20:28;;;;;;;4.17;2.40;;;;;;;12.13;100.00;96634.66;4191900;28;20703;-85
2023/10/29 04:22:32;;;;;;;3.50;2.07;;;;;;;12.13;99.95;96655.56;4177122;28;20635;-85
2023/10/29 04:24:36;;;;;;;3.10;1.70;;;;;;;12.11;100.00;96658.31;4209911;28;21039;-85
2023/10/29 04:26:39;;;;;;;5.13;2.10;;;;;;;12.10;100.00;96656.66;4194236;28;20648;-85
2023/10/29 04:28:45;;;;;;;3.20;2.20;;;;;;;12.10;100.00;96656.66;4194655;28;20624;-85
2023/10/29 04:30:48;;;;;;;3.63;2.13;;;;;;;12.07;100.00;96670.06;4168791;28;20679;-85
2023/10/29 04:32:51;;;;;;;3.00;1.93;;;;;;;12.06;100.00;96671.03;4152711;28;20667;-85
2023/10/29 04:34:56;;;;;;;3.90;1.80;;;;;;;12.08;100.00;96668.25;4162723;28;21525;-85
2023/10/29 04:37:00;;;;;;;2.03;1.53;;;;;;;12.08;100.00;96669.06;4160046;28;21397;-85
2023/10/29 04:39:05;;;;;;;4.80;2.00;;;;;;;12.09;100.00;96667.25;4160148;28;21170;-85
2023/10/29 04:41:08;;;;;;;3.10;1.93;;;;;;;12.11;100.00;96666.16;4182713;28;20686;-85
2023/10/29 04:43:12;;;;;;;2.37;2.07;;;;;;;12.09;100.00;96665.50;4175128;28;20684;-85
2023/10/29 04:45:16;;;;;;;4.10;1.97;;;;;;;12.08;100.00;96665.66;4172281;28;20686;-85
2023/10/29 04:47:18;;;;;;;3.30;2.30;;;;;;;12.09;99.88;96659.44;4156887;28;20633;-84
2023/10/29 04:49:24;;;;;;;2.83;2.33;;;;;;;12.07;100.00;96662.22;4175238;28;21322;-84
2023/10/29 04:51:30;;;;;;;3.67;1.87;;;;;;;12.06;100.00;96668.41;4194199;28;20615;-85
2023/10/29 04:53:33;;;;;;;5.60;2.27;;;;;;;12.03;100.00;96666.09;4174366;28;20644;-84
2023/10/29 04:55:38;;;;;;;3.00;2.17;;;;;;;12.02;100.00;96667.03;4193839;28;20627;-85
2023/10/29 04:57:44;;;;;;;3.13;2.00;;;;;;;12.03;100.00;96668.69;4192101;28;20627;-84
2023/10/29 04:59:46;;;;;;;2.30;1.70;;;;;;;12.05;100.00;96674.59;4158179;28;20696;-85
2023/10/29 05:01:50;;;;;;;4.60;2.80;;;;;;;12.06;100.00;96678.84;4178144;28;20655;-84
2023/10/29 05:03:54;;;;;;;3.80;1.90;;;;;;;12.07;100.00;96670.06;4174766;28;20620;-84
2023/10/29 05:05:59;;;;;;;3.20;2.00;;;;;;;12.05;100.00;96658.91;4165355;28;20653;-85
2023/10/29 05:08:04;;;;;;;6.13;2.00;;;;;;;12.06;100.00;96651.91;4164228;28;20628;-85
2023/10/29 05:10:08;;;;;;;2.60;2.00;;;;;;;12.05;100.00;96640.63;4179082;28;20619;-85
2023/10/29 05:12:12;;;;;;;4.00;2.07;;;;;;;12.06;100.00;96642.28;4173865;28;20684;-85
2023/10/29 05:14:16;;;;;;;3.43;1.77;;;;;;;12.04;100.00;96639.00;4204807;28;20620;-85
2023/10/29 05:16:20;;;;;;;2.63;2.07;;;;;;;12.06;100.00;96631.81;4170360;28;20648;-84
2023/10/29 05:18:24;;;;;;;3.50;2.27;;;;;;;12.08;100.00;96629.06;4177750;28;20963;-85
2023/10/29 05:20:28;;;;;;;4.50;2.10;;;;;;;12.07;100.00;96635.25;4158439;28;21012;-85
2023/10/29 05:22:32;;;;;;;3.73;2.33;;;;;;;12.09;100.00;96633.28;4191250;28;20621;-85
2023/10/29 05:24:37;;;;;;;3.30;2.00;;;;;;;12.07;100.00;96630.03;4179330;28;21186;-84
2023/10/29 05:26:41;;;;;;;3.50;2.00;;;;;;;12.08;100.00;96635.09;4203740;28;20654;-85
2023/10/29 05:28:45;;;;;;;5.13;1.77;;;;;;;12.07;100.00;96620.41;4193251;28;20991;-85
2023/10/29 05:30:49;;;;;;;2.70;1.90;;;;;;;12.06;100.00;96612.72;4172105;28;20653;-84
2023/10/29 05:32:51;;;;;;;2.70;2.17;;;;;;;12.04;100.00;96612.88;4174717;28;20679;-84
2023/10/29 05:34:55;;;;;;;2.97;1.80;;;;;;;12.03;100.00;96611.22;4162702;28;21218;-84
2023/10/29 05:37:00;;;;;;;2.80;2.27;;;;;;;12.01;100.00;96609.72;4164868;28;20660;-85
2023/10/29 05:39:06;;;;;;;3.17;1.80;;;;;;;12.00;100.00;96621.97;4162376;28;20637;-84
2023/10/29 05:41:12;;;;;;;2.97;2.30;;;;;;;12.02;100.00;96635.69;4207358;28;20637;-84
2023/10/29 05:43:17;;;;;;;3.53;2.80;;;;;;;12.04;100.00;96644.22;4190449;28;20629;-85
2023/10/29 05:45:20;;;;;;;2.60;1.80;;;;;;;12.02;100.00;96640.91;4174571;28;20634;-84
2023/10/29 05:47:23;;;;;;;3.03;1.83;;;;;;;12.06;100.00;96642.28;4177822;28;20629;-85
2023/10/29 05:49:26;;;;;;;2.97;1.90;;;;;;;12.06;100.00;96647.50;4176934;28;20629;-84
2023/10/29 05:51:30;;;;;;;3.83;2.23;;;;;;;12.08;100.00;96655.19;4193375;28;21177;-85
2023/10/29 05:53:34;;;;;;;6.37;1.83;;;;;;;12.11;100.00;96655.72;4164865;28;20707;-85
2023/10/29 05:55:39;;;;;;;3.70;2.03;;;;;;;12.10;100.00;96655.84;4173113;28;21039;-85
2023/10/29 05:57:45;;;;;;;3.40;2.07;;;;;;;12.10;100.00;96659.28;4190580;28;20631;-85
2023/10/29 05:59:48;;;;;;;6.10;2.03;;;;;;;12.10;100.00;96664.50;4173288;28;20613;-85
2023/10/29 06:01:53;;;;;;;2.67;1.87;;;;;;;12.12;100.00;96667.81;4192197;28;21675;-84
2023/10/29 06:03:56;;;;;;;2.97;2.03;;;;;;;12.12;100.00;96665.19;4181227;28;20633;-85
2023/10/29 06:06:01;;;;;;;3.10;2.00;;;;;;;12.13;100.00;96664.22;4173439;28;20666;-85
2023/10/29 06:08:05;;;;;;;4.53;2.20;;;;;;;12.14;100.00;96659.81;4191347;28;20719;-85
2023/10/29 06:10:10;;;;;;;2.70;1.90;;;;;;;12.12;100.00;96654.75;4170044;28;20635;-85
2023/10/29 06:12:14;;;;;;;3.10;1.90;;;;;;;12.13;100.00;96650.31;4178508;28;20736;-85
2023/10/29 06:14:18;;;;;;;5.20;2.53;;;;;;;12.13;100.00;96658.97;4161900;28;20722;-85
2023/10/29 06:16:23;;;;;;;3.03;1.83;;;;;;;12.15;100.00;96656.22;4190794;28;21235;-85
2023/10/29 06:18:27;;;;;;;6.57;2.03;;;;;;;12.16;100.00;96656.06;4196012;28;20681;-84
2023/10/29 06:20:30;;;;;;;3.50;1.93;;;;;;;12.18;100.00;96648.06;4173986;28;20699;-85
2023/10/29 06:22:35;;;;;;;3.60;1.80;;;;;;;12.18;100.00;96645.47;4178112;28;20628;-84
2023/10/29 06:24:39;;;;;;;2.67;1.90;;;;;;;12.17;100.00;96660.34;4181000;28;20603;-84
2023/10/29 06:26:43;;;;;;;3.07;2.00;;;;;;;12.19;100.00;96653.16;4177532;28;20660;-85
2023/10/29 06:28:46;;;;;;;3.90;2.23;;;;;;;12.21;100.00;96669.53;4181228;28;21252;-84
2023/10/29 06:30:52;;;;;;;3.87;2.27;;;;;;;12.19;100.00;96681.91;4172655;28;20640;-85
2023/10/29 06:33:00;;;;;;;5.03;2.60;;;;;;;12.19;100.00;96681.91;4184778;28;21243;-84
2023/10/29 06:35:04;;;;;;;3.70;2.00;;;;;;;12.20;100.00;96687.97;4178455;28;20719;-85
2023/10/29 06:37:07;;;;;;;7.13;2.30;;;;;;;12.23;100.00;96694.53;4163826;28;20626;-85
2023/10/29 06:39:11;;;;;;;4.57;2.27;;;;;;;12.24;100.00;96692.75;4187354;28;21450;-84
2023/10/29 06:41:15;;;;;;;2.70;1.80;;;;;;;12.24;100.00;96698.00;4173723;28;21044;-85
2023/10/29 06:43:19;;;;;;;2.60;1.80;;;;;;;12.24;100.00;96688.34;4175924;28;20619;-85
2023/10/29 06:45:22;;;;;;;2.97;1.97;;;;;;;12.25;100.00;96692.63;4204892;28;20729;-85
2023/10/29 06:47:28;;;;;;;3.23;2.33;;;;;;;12.27;100.00;96702.91;4192222;28;20649;-84
2023/10/29 06:49:32;;;;;;;2.97;2.00;;;;;;;12.32;100.00;96700.66;4177281;28;20705;-84
2023/10/29 06:51:35;;;;;;;4.27;2.27;;;;;;;12.35;100.00;96710.84;4164296;28;20760;-85
2023/10/29 06:53:37;;;;;;;7.53;3.33;;;;;;;12.36;100.00;96721.13;4175952;28;20648;-85
2023/10/29 06:55:42;;;;;;;8.33;2.80;;;;;;;12.40;100.00;96719.03;4168198;28;20633;-84
2023/10/29 06:57:45;;;;;;;4.13;2.20;;;;;;;12.41;100.00;96716.28;4174645;28;20620;-84
2023/10/29 06:59:49;;;;;;;5.10;2.30;;;;;;;12.44;100.00;96723.00;4175747;28;21231;-85
2023/10/29 07:01:52;;;;;;;2.90;2.60;;;;;;;12.48;100.00;96729.56;4190725;28;20626;-85
2023/10/29 07:03:58;;;;;;;4.50;3.20;;;;;;;12.44;100.00;96736.09;4194672;28;21237;-85
2023/10/29 07:06:07;;;;;;;6.53;2.50;;;;;;;12.45;100.00;96742.97;4177857;28;21201;-85
2023/10/29 07:08:10;;;;;;;3.50;2.77;;;;;;;12.48;100.00;96756.56;4194437;28;20981;-85
2023/10/29 07:10:14;;;;;;;4.80;2.50;;;;;;;12.52;100.00;96750.03;4161764;28;20634;-85
2023/10/29 07:12:18;;;;;;;4.10;2.83;;;;;;;12.45;100.00;96753.44;4173780;28;20640;-85
2023/10/29 07:14:21;;;;;;;5.53;2.70;;;;;;;12.43;100.00;96763.19;4160142;28;20629;-84
2023/10/29 07:16:24;;;;;;;6.90;3.00;;;;;;;12.44;100.00;96759.63;4161316;28;20656;-84
2023/10/29 07:18:29;;;;;;;3.60;2.77;;;;;;;12.45;100.00;96771.72;4160654;28;20632;-85
2023/10/29 07:20:34;;;;;;;6.87;3.50;;;;;;;12.55;100.00;96770.66;4203254;28;21048;-85
2023/10/29 07:22:37;;;;;;;3.90;3.00;;;;;;;12.56;100.00;96768.91;4161178;28;20682;-85
2023/10/29 07:24:41;;;;;;;4.93;3.40;;;;;;;12.60;100.00;96778.91;4190262;28;20634;-85
2023/10/29 07:26:45;;;;;;;4.47;3.50;;;;;;;12.60;100.00;96773.69;4174284;28;20711;-85
2023/10/29 07:28:48;;;;;;;5.17;3.07;;;;;;;12.62;100.00;96790.03;4179257;28;20662;-85
2023/10/29 07:30:51;;;;;;;4.23;3.10;;;;;;;12.63;100.00;96793.47;4173354;28;20674;-85
2023/10/29 07:32:55;;;;;;;6.10;3.80;;;;;;;12.64;100.00;96795.13;4173092;28;20712;-85
2023/10/29 07:34:59;;;;;;;4.17;3.33;;;;;;;12.66;100.00;96787.94;4161982;28;20637;-85
2023/10/29 07:37:04;;;;;;;3.63;3.07;;;;;;;12.68;100.00;96792.06;4190242;28;21274;-85
2023/10/29 07:39:07;;;;;;;5.10;3.07;;;;;;;12.68;100.00;96795.47;4189427;28;20624;-85
2023/10/29 07:41:10;;;;;;;4.17;3.50;;;;;;;12.71;100.00;96792.56;4177250;28;20694;-85
2023/10/29 07:43:15;;;;;;;9.03;6.13;;;;;;;12.74;100.00;96794.06;4174787;28;20620;-85
2023/10/29 07:45:18;;;;;;;7.90;5.07;;;;;;;12.75;100.00;96799.16;4188628;28;20730;-85
2023/10/29 07:47:23;;;;;;;10.70;8.10;;;;;;;12.76;100.00;96795.59;4175795;28;20713;-84
2023/10/29 07:49:26;;;;;;;9.77;6.50;;;;;;;12.79;100.00;96805.75;4176419;28;20636;-85
2023/10/29 07:51:31;;;;;;;6.00;4.83;;;;;;;12.80;100.00;96796.91;4178038;28;20666;-85
2023/10/29 07:53:39;;;;;;;8.60;7.37;;;;;;;12.83;100.00;96801.06;4174148;28;20633;-85
2023/10/29 07:55:42;;;;;;;31.40;13.03;;;;;;;12.83;100.00;96795.81;4175187;28;20702;-85
2023/10/29 07:57:45;;;;;;;20.20;15.27;;;;;;;12.83;100.00;96801.88;4193888;28;20626;-85
2023/10/29 07:59:49;;;;;;;23.40;14.90;;;;;;;12.84;100.00;96793.06;4176885;28;20733;-85
2023/10/29 08:01:53;;;;;;;21.40;10.50;;;;;;;12.87;100.00;96795.38;4185699;28;20630;-85
2023/10/29 08:03:57;;;;;;;25.70;11.50;;;;;;;12.92;100.00;96792.31;4189405;28;21169;-85
2023/10/29 08:06:03;;;;;;;18.27;9.93;;;;;;;12.95;100.00;96800.69;4174047;28;20692;-85
2023/10/29 08:08:07;;;;;;;23.00;11.53;;;;;;;12.99;100.00;96802.03;4163129;28;20649;-85
2023/10/29 08:10:12;;;;;;;5.77;4.27;;;;;;;13.02;100.00;96812.19;4175311;28;20635;-85
2023/10/29 08:12:16;;;;;;;21.10;8.93;;;;;;;13.06;100.00;96820.56;4156974;28;21038;-85
2023/10/29 08:14:19;;;;;;;17.97;8.97;;;;;;;13.11;100.00;96824.38;4173111;28;20632;-85
2023/10/29 08:16:24;;;;;;;28.60;13.37;;;;;;;13.15;100.00;96828.31;4192026;28;20684;-85
2023/10/29 08:18:27;;;;;;;10.70;7.73;;;;;;;13.19;100.00;96819.22;4173388;28;20974;-85
2023/10/29 08:20:31;;;;;;;10.33;5.17;;;;;;;13.24;100.00;96820.41;4196622;28;20736;-85
2023/10/29 08:22:34;;;;;;;6.20;3.50;;;;;;;13.30;100.00;96838.09;4171812;28;20999;-85
2023/10/29 08:24:38;;;;;;;17.73;10.13;;;;;;;13.39;100.00;96833.75;4207136;28;20620;-85
2023/10/29 08:26:43;;;;;;;19.17;9.57;;;;;;;13.45;100.00;96841.81;4174846;28;21240;-83
2023/10/29 08:28:47;;;;;;;9.40;6.83;;;;;;;13.51;100.00;96846.44;4160539;28;20673;-83
2023/10/29 08:30:50;;;;;;;33.30;13.67;;;;;;;13.61;100.00;96846.38;4183799;28;21329;-83
2023/10/29 08:32:56;;;;;;;17.77;8.83;;;;;;;13.72;100.00;96846.91;4179273;28;20680;-83
2023/10/29 08:35:03;;;;;;;7.47;4.33;;;;;;;13.81;100.00;96846.81;4175206;28;20640;-84
2023/10/29 08:37:07;;;;;;;4.80;3.17;;;;;;;13.85;100.00;96845.53;4160752;28;20640;-83
2023/10/29 08:39:13;;;;;;;18.17;8.93;;;;;;;13.89;100.00;96841.63;4208189;28;20623;-84
2023/10/29 08:41:17;;;;;;;12.60;6.13;;;;;;;13.96;100.00;96837.41;4183804;28;20637;-83
2023/10/29 08:43:23;;;;;;;21.30;12.40;;;;;;;14.02;100.00;96842.03;4160829;28;20632;-83
2023/10/29 08:45:27;;;;;;;11.27;7.77;;;;;;;14.07;100.00;96842.41;4195622;28;20623;-84
2023/10/29 08:47:43;;;;;;;9.80;6.63;;;;;;;14.10;100.00;96842.09;4171294;28;20696;-83
2023/10/29 08:49:47;;;;;;;8.67;6.10;;;;;;;14.10;100.00;96851.75;4170224;28;20657;-83
2023/10/29 08:51:52;;;;;;;10.17;7.20;;;;;;;14.13;100.00;96857.50;4167128;28;20668;-84
2023/10/29 08:54:02;;;;;;;6.30;4.90;;;;;;;14.16;100.00;96859.81;4180240;28;20627;-83
2023/10/29 08:56:07;;;;;;;7.40;5.47;;;;;;;14.12;100.00;96865.53;4190318;28;20633;-84
2023/10/29 08:58:11;;;;;;;9.90;6.87;;;;;;;14.14;100.00;96869.66;4177021;28;20629;-83
2023/10/29 09:00:16;;;;;;;14.10;9.43;;;;;;;14.19;100.00;96876.06;4176004;28;20642;-83
2023/10/29 09:02:20;;;;;;;12.40;6.80;;;;;;;14.24;100.00;96876.41;4163585;28;21084;-84
2023/10/29 09:04:23;;;;;;;9.90;5.30;;;;;;;14.30;100.00;96875.78;4169291;28;21263;-83
2023/10/29 09:06:27;;;;;;;9.10;5.27;;;;;;;14.35;100.00;96870.88;4177933;28;21216;-83
2023/10/29 09:08:31;;;;;;;6.50;4.70;;;;;;;14.39;100.00;96871.41;4179843;28;20676;-83
2023/10/29 09:10:36;;;;;;;16.67;14.90;;;;;;;14.41;100.00;96870.25;4158630;28;21252;-83
2023/10/29 09:12:42;;;;;;;10.03;6.20;;;;;;;14.43;100.00;96876.16;4162082;28;20646;-84
2023/10/29 09:14:46;;;;;;;7.50;5.53;;;;;;;14.40;100.00;96875.66;4192940;28;20651;-83
2023/10/29 09:16:51;;;;;;;7.43;4.33;;;;;;;14.40;100.00;96862.56;4180983;28;20993;-83
2023/10/29 09:18:54;;;;;;;8.43;7.67;;;;;;;14.45;100.00;96861.09;4161570;28;20655;-84
2023/10/29 09:20:58;;;;;;;6.60;5.17;;;;;;;14.46;100.00;96851.44;4193885;28;20648;-83
2023/10/29 09:23:00;;;;;;;6.30;5.27;;;;;;;14.43;100.00;96849.13;4195439;28;20618;-83
2023/10/29 09:25:04;;;;;;;3.87;3.23;;;;;;;14.42;100.00;96845.69;4191634;28;20632;-83
2023/10/29 09:27:08;;;;;;;6.83;6.13;;;;;;;14.42;100.00;96839.63;4175364;28;21277;-83
2023/10/29 09:29:13;;;;;;;6.20;5.40;;;;;;;14.44;100.00;96837.66;4158184;28;21185;-83
2023/10/29 09:31:17;;;;;;;8.10;5.53;;;;;;;14.50;99.32;96842.25;4175566;28;20648;-83
2023/10/29 09:33:22;;;;;;;7.03;4.10;;;;;;;14.55;99.56;96834.72;4181642;28;20629;-83
2023/10/29 09:35:27;;;;;;;4.23;3.37;;;;;;;14.59;99.24;96842.94;4175488;28;20629;-83
2023/10/29 09:37:32;;;;;;;4.13;2.47;;;;;;;14.63;98.30;96832.97;4163294;28;20684;-83